Airfield :
LOGIN :

Register | Disclaimer

   EN    FR    IT 

 










Legend :    VFR   Marginal VFR   IFR   Intensive IFR   Very Intensive IFR
Visi :
Ceiling :
>= 8 km
>= 3000ft
5 to 8 km
1000 to 3000 ft
1500m to 5 km
500 to 1000 ft
800 to 1500m
200 to 500 ft
< 800m
< 200 ft
Symbols :   Thunderstorms  Fog  Heavy snow  Heavy precipitations  Wind > 20 kt
SIGMETs :     Misc.  Thunderstorms  Icing  Turbulence  Mountain Waves  Volcanic Ashes







- Airport Elevation : 3368 ft


LSGC - Les Eplatures

CURRENT METAR :
  • 172250Z AUTO 24001KT 9999 NSC M07/M08 Q1025

EXPIRED METARs :
  • 172220Z AUTO 27001KT 9999 NSC M07/M08 Q1025
  • 172150Z AUTO 00000KT 9999 NCD M08/M09 Q1025
  • 172120Z AUTO VRB01KT 9999 NCD M06/M07 Q1025
  • 172050Z AUTO VRB02KT 9999 BKN018 M05/M05 Q1025
  • 172020Z AUTO 00000KT 9999 OVC019 M04/M05 Q1025

TAF TAF LSGC
Valid from the 17 at 15:00 until the 18 at 00:00 UTC


171425Z 1715/1724 22004KT 9999 SCT010 BKN020
PROB40
TEMPO 1715/1717 3500 -SHSN BKN014
BECMG 1717/1720 CAVOK
No reported NOTAMs for that airfield.



MET'MAP, your aeronautical weather chart ! - Copyright ORBIFLY December 2007 - Disclaimer

ORBIFLY MET'MAP TEAM :

Programming & Development : Alexandra Zaïnal
Concept & Development : Baudouin d'Aumeries
Co-Development & Prog : Marc-Olivier Méhu
Technical & hardware support : Manuel Goepfert

Contact : metmap@orbifly.com




SOURCES & CREDITS :

   NOAA